Time;durP1;ratioP1;P1;durP2;ratioP2;P2;SDS_P1;SDS_P2;PMS_P1;PMS_P2;Temp;Humidity;BMP_temperature;BMP_pressure;BME280_temperature;BME280_humidity;BME280_pressure;Samples;Min_cycle;Max_cycle;Signal;HPM_P1;HPM_P2
2024/02/24 08:43:43;;;;;;;2.20;1.70;;;;;;;3.63;100.00;97513.13;5108175;28;20562;-79
2024/02/24 08:46:11;;;;;;;3.70;2.03;;;;;;;4.23;100.00;97514.00;5107366;28;40013;-79
2024/02/24 08:48:39;;;;;;;1.97;1.40;;;;;;;4.86;100.00;97511.09;5090710;28;40964;-80
2024/02/24 08:51:06;;;;;;;1.50;1.33;;;;;;;5.44;100.00;97511.91;5089900;28;42900;-80
2024/02/24 08:53:34;;;;;;;1.60;1.50;;;;;;;6.04;98.82;97536.91;5107404;28;42695;-82
2024/02/24 08:56:03;;;;;;;3.33;1.70;;;;;;;6.41;94.40;97539.72;5107374;28;39016;-81
2024/02/24 08:58:30;;;;;;;3.97;1.50;;;;;;;6.84;92.62;97556.91;5090025;28;40802;-80
2024/02/24 09:00:59;;;;;;;2.13;1.30;;;;;;;7.09;89.46;97563.13;5090980;28;41710;-80
2024/02/24 09:03:27;;;;;;;1.47;1.30;;;;;;;7.30;87.78;97555.50;5090751;28;40997;-80
2024/02/24 09:05:54;;;;;;;1.30;1.20;;;;;;;7.50;86.57;97561.06;5090897;28;39548;-81
2024/02/24 09:08:22;;;;;;;2.00;1.37;;;;;;;7.76;85.35;97566.28;5090549;28;40271;-80
2024/02/24 09:10:52;;;;;;;2.13;1.20;;;;;;;7.68;84.82;97513.28;5107715;28;41827;-82
2024/02/24 09:13:19;;;;;;;1.67;1.00;;;;;;;8.23;82.92;97571.59;5090157;28;41407;-81
2024/02/24 09:15:47;;;;;;;2.37;1.37;;;;;;;8.27;81.83;97564.28;5107152;28;39968;-81
2024/02/24 09:18:17;;;;;;;1.83;1.07;;;;;;;8.42;80.80;97562.31;5089278;28;41979;-82
2024/02/24 09:20:44;;;;;;;1.50;1.40;;;;;;;8.67;79.86;97588.56;5106877;28;42796;-82
2024/02/24 09:23:12;;;;;;;1.57;1.07;;;;;;;8.85;79.35;97592.47;5107745;28;43165;-81
2024/02/24 09:25:39;;;;;;;1.00;0.87;;;;;;;9.00;77.68;97580.75;5106500;28;39827;-82
2024/02/24 09:28:07;;;;;;;3.03;1.20;;;;;;;9.24;75.94;97587.75;5106574;28;42037;-82
2024/02/24 09:30:35;;;;;;;1.03;0.93;;;;;;;9.78;74.88;97593.13;5089677;28;43111;-81
2024/02/24 09:33:02;;;;;;;1.73;1.20;;;;;;;11.44;69.56;97613.78;5089475;28;43770;-83
2024/02/24 09:35:31;;;;;;;1.17;1.10;;;;;;;11.39;65.77;97616.00;5106673;28;38960;-82
2024/02/24 09:37:59;;;;;;;1.30;0.77;;;;;;;11.31;65.46;97629.06;5106614;28;42316;-82
2024/02/24 09:40:26;;;;;;;1.33;1.00;;;;;;;11.25;63.53;97605.75;5090111;28;42822;-81
2024/02/24 09:43:03;;;;;;;1.00;0.90;;;;;;;13.78;58.38;97660.78;5106163;28;43146;-83
2024/02/24 09:45:35;;;;;;;1.53;0.97;;;;;;;13.41;56.73;97669.56;5107809;28;39381;-83
2024/02/24 09:48:03;;;;;;;0.90;0.70;;;;;;;12.92;57.63;97662.56;5105440;28;42690;-82
2024/02/24 09:50:32;;;;;;;1.23;0.80;;;;;;;12.71;57.63;97685.78;5089904;28;43885;-83
2024/02/24 09:52:59;;;;;;;0.73;0.67;;;;;;;12.67;57.50;97679.03;5105642;28;42456;-83
2024/02/24 09:55:27;;;;;;;1.77;1.20;;;;;;;12.63;58.93;97672.31;5109836;28;38907;-83
2024/02/24 09:57:56;;;;;;;0.93;0.80;;;;;;;12.52;56.89;97682.09;5092559;28;42193;-82
2024/02/24 10:00:24;;;;;;;1.80;0.80;;;;;;;12.32;57.57;97667.09;5076467;28;44077;-82
2024/02/24 10:02:52;;;;;;;0.73;0.73;;;;;;;12.29;57.83;97685.94;5076540;28;41649;-82
2024/02/24 10:05:19;;;;;;;1.40;0.90;;;;;;;12.30;57.59;97692.94;5093972;28;40231;-83
2024/02/24 10:07:49;;;;;;;0.77;0.60;;;;;;;12.27;56.79;97695.84;5075976;28;40740;-82
2024/02/24 10:10:17;;;;;;;0.57;0.53;;;;;;;12.43;57.28;97698.84;5076762;28;43320;-82
2024/02/24 10:12:56;;;;;;;1.20;0.73;;;;;;;12.12;57.49;97690.06;5076174;28;41021;-82
2024/02/24 10:15:24;;;;;;;0.83;0.73;;;;;;;11.76;59.08;97694.09;5076735;28;40364;-83
2024/02/24 10:17:54;;;;;;;1.43;0.60;;;;;;;11.20;60.13;97695.38;5076092;28;42311;-84
2024/02/24 10:20:22;;;;;;;0.97;0.70;;;;;;;10.74;62.46;97678.84;5076909;28;44847;-85
2024/02/24 10:22:51;;;;;;;0.60;0.60;;;;;;;10.09;65.49;97657.66;5076121;28;41504;-84
2024/02/24 10:25:19;;;;;;;0.83;0.63;;;;;;;9.94;67.96;97682.66;5076808;28;39900;-83
2024/02/24 10:27:52;;;;;;;0.63;0.63;;;;;;;9.75;70.55;97669.22;5072358;28;41486;-84
2024/02/24 10:30:20;;;;;;;0.40;0.40;;;;;;;9.71;71.85;97660.69;5054343;28;42254;-83
2024/02/24 10:32:50;;;;;;;0.50;0.50;;;;;;;9.80;70.33;97681.09;5043564;28;42482;-83
2024/02/24 10:35:19;;;;;;;0.60;0.60;;;;;;;9.86;70.65;97664.78;5092511;28;40529;-82
2024/02/24 10:37:48;;;;;;;1.20;0.60;;;;;;;12.34;65.27;97693.50;5091925;28;42270;-82
2024/02/24 10:40:19;;;;;;;0.30;0.30;;;;;;;14.81;61.74;97719.22;5075184;28;41935;-83
2024/02/24 10:42:48;;;;;;;0.40;0.40;;;;;;;16.95;54.65;97720.34;5073796;28;41930;-83
2024/02/24 10:45:17;;;;;;;0.93;0.53;;;;;;;18.62;51.04;97744.75;5075358;28;38877;-83
2024/02/24 10:47:44;;;;;;;0.40;0.40;;;;;;;19.43;46.81;97770.31;5091426;28;42248;-83
2024/02/24 10:50:13;;;;;;;0.50;0.50;;;;;;;21.35;41.71;97785.75;5091861;28;41898;-84
2024/02/24 10:52:41;;;;;;;0.35;0.35;;;;;;;23.74;38.38;97788.03;5074901;28;41950;-81
2024/02/24 10:55:10;;;;;;;0.20;0.20;;;;;;;26.03;33.39;97819.44;5091480;28;40640;-84
2024/02/24 10:57:41;;;;;;;0.45;0.30;;;;;;;27.51;29.29;97812.16;5074402;28;43014;-82
2024/02/24 11:00:27;;;;;;;0.20;0.20;;;;;;;27.94;27.76;97833.81;5074626;28;41692;-82
2024/02/24 11:02:54;;;;;;;0.82;0.50;;;;;;;27.97;28.83;97830.59;5075274;28;42412;-83
2024/02/24 11:05:26;;;;;;;0.35;0.30;;;;;;;28.01;27.16;97842.69;5074453;28;38950;-83
2024/02/24 11:07:54;;;;;;;0.30;0.30;;;;;;;28.77;26.27;97822.84;5075648;28;41166;-82
2024/02/24 11:10:22;;;;;;;0.50;0.30;;;;;;;29.52;26.22;97830.25;5074870;28;44504;-82
2024/02/24 11:13:08;;;;;;;0.50;0.30;;;;;;;30.22;24.16;97833.53;5075053;28;41128;-82
2024/02/24 11:15:38;;;;;;;0.30;0.20;;;;;;;31.55;23.39;97844.59;5092140;28;41856;-83
2024/02/24 11:18:06;;;;;;;0.20;0.20;;;;;;;32.14;22.70;97826.41;5091742;28;42630;-84
2024/02/24 11:20:53;;;;;;;0.20;0.20;;;;;;;32.60;21.86;97829.56;5075745;28;44223;-83
2024/02/24 11:23:22;;;;;;;1.05;0.20;;;;;;;32.66;23.11;97823.00;5075524;28;41252;-82
2024/02/24 11:26:12;;;;;;;0.20;0.20;;;;;;;30.88;22.88;97817.41;5092719;28;40397;-83
2024/02/24 11:28:42;;;;;;;0.35;0.30;;;;;;;27.65;24.25;97821.00;5075350;28;41939;-83
2024/02/24 11:31:12;;;;;;;0.50;0.40;;;;;;;25.41;25.93;97821.84;5070001;28;45073;-83
2024/02/24 11:33:41;;;;;;;0.57;0.40;;;;;;;23.63;28.09;97800.28;5054221;28;42412;-83
2024/02/24 11:36:09;;;;;;;0.40;0.30;;;;;;;22.18;29.61;97812.09;5087835;28;39838;-83
2024/02/24 11:38:38;;;;;;;0.30;0.30;;;;;;;20.86;32.42;97780.97;5074479;28;41443;-83
2024/02/24 11:41:06;;;;;;;0.73;0.50;;;;;;;19.84;34.12;97768.22;5073707;28;42929;-84
2024/02/24 11:43:33;;;;;;;0.30;0.30;;;;;;;19.70;35.86;97762.59;5073837;28;41602;-84
2024/02/24 11:46:06;;;;;;;0.43;0.40;;;;;;;21.74;35.04;97764.63;5070696;28;40136;-84
2024/02/24 11:48:35;;;;;;;0.50;0.50;;;;;;;23.20;34.00;97767.28;5071599;28;42335;-84
2024/02/24 11:51:24;;;;;;;0.60;0.50;;;;;;;23.70;31.81;97756.22;5065948;28;43165;-87
2024/02/24 11:54:33;;;;;;;0.50;0.50;;;;;;;27.06;29.43;97781.78;5074269;28;40763;-84
2024/02/24 12:08:24;;;;;;;0.30;0.30;;;;;;;24.77;27.15;97783.03;5110079;28;43619;-84
2024/02/24 12:10:52;;;;;;;0.40;0.40;;;;;;;23.85;28.43;97773.94;5077577;28;39259;-85
2024/02/24 12:13:20;;;;;;;0.30;0.30;;;;;;;22.99;29.46;97791.72;5077726;28;40688;-82
2024/02/24 12:15:49;;;;;;;0.77;0.50;;;;;;;23.68;29.82;97796.97;5059522;28;42372;-83
2024/02/24 12:18:34;;;;;;;0.67;0.43;;;;;;;24.09;27.78;97820.34;5092467;27;42504;-88
2024/02/24 12:21:01;;;;;;;0.40;0.40;;;;;;;23.18;28.65;97793.66;5093963;27;39932;-86
2024/02/24 12:26:16;;;;;;;1.90;0.60;;;;;;;22.93;27.73;97776.31;5096585;27;42181;-85
2024/02/24 12:28:46;;;;;;;1.30;0.70;;;;;;;25.11;26.61;97820.69;5096786;27;43133;-83
2024/02/24 12:31:24;;;;;;;7.37;2.90;;;;;;;26.73;25.25;97841.84;5098633;27;40446;-84
2024/02/24 12:33:51;;;;;;;1.10;1.00;;;;;;;27.02;24.26;97824.03;5117023;27;41873;-85
2024/02/24 12:36:19;;;;;;;7.57;2.53;;;;;;;26.60;25.38;97853.66;5117028;27;43323;-84
2024/02/24 12:38:49;;;;;;;1.20;0.73;;;;;;;25.83;25.02;97830.44;5134166;27;43143;-84
2024/02/24 12:41:17;;;;;;;0.70;0.60;;;;;;;25.22;26.57;97825.44;5117220;27;39116;-84
2024/02/24 12:43:44;;;;;;;0.83;0.50;;;;;;;25.49;26.98;97812.63;5117040;27;40788;-84
2024/02/24 12:46:23;;;;;;;0.33;0.30;;;;;;;26.16;24.89;97842.94;5134534;27;42865;-85
2024/02/24 12:48:56;;;;;;;0.33;0.33;;;;;;;27.47;24.07;97844.41;5116924;27;41596;-87
2024/02/24 12:51:23;;;;;;;1.05;0.50;;;;;;;28.14;23.77;97809.81;5117143;27;40632;-85
2024/02/24 12:53:53;;;;;;;0.50;0.40;;;;;;;29.06;23.33;97840.13;5104338;28;44517;-83
2024/02/24 12:56:24;;;;;;;0.35;0.35;;;;;;;29.86;21.99;97847.56;5075793;28;41953;-85
2024/02/24 12:58:52;;;;;;;0.38;0.38;;;;;;;29.26;21.32;97850.69;5075602;28;43269;-84
2024/02/24 13:01:19;;;;;;;0.50;0.50;;;;;;;27.23;23.34;97849.94;5094121;28;41642;-83
2024/02/24 13:03:53;;;;;;;0.40;0.40;;;;;;;25.55;24.56;97851.59;5094089;28;41733;-84
2024/02/24 13:06:21;;;;;;;0.40;0.40;;;;;;;24.09;25.95;97832.00;5076718;28;44028;-83
2024/02/24 13:08:48;;;;;;;0.57;0.47;;;;;;;23.26;27.09;97841.28;5077094;28;41449;-83
2024/02/24 13:11:20;;;;;;;0.87;0.30;;;;;;;21.88;27.28;97832.13;5076772;28;38814;-83
2024/02/24 13:13:47;;;;;;;0.30;0.30;;;;;;;21.09;28.83;97832.84;5076745;28;42513;-83
2024/02/24 13:16:15;;;;;;;0.47;0.40;;;;;;;20.63;30.15;97823.28;5093700;28;43195;-84
2024/02/24 13:18:43;;;;;;;0.77;0.30;;;;;;;20.19;30.27;97818.63;5093876;28;42760;-82
2024/02/24 13:21:10;;;;;;;0.30;0.30;;;;;;;20.08;30.46;97838.72;5094167;28;40315;-84
2024/02/24 13:23:38;;;;;;;0.40;0.33;;;;;;;19.38;30.06;97778.94;5076751;28;42962;-82
2024/02/24 13:26:05;;;;;;;0.50;0.37;;;;;;;19.22;30.71;97832.69;5111836;28;43801;-81
2024/02/24 13:28:34;;;;;;;0.40;0.40;;;;;;;18.87;31.64;97826.81;5076235;28;41107;-82
2024/02/24 13:31:02;;;;;;;0.40;0.37;;;;;;;18.50;31.59;97813.13;5078686;28;40298;-83
2024/02/24 13:33:29;;;;;;;0.60;0.50;;;;;;;18.48;32.37;97802.59;5095866;28;40973;-82
2024/02/24 13:35:57;;;;;;;0.37;0.37;;;;;;;18.54;31.94;97814.47;5079250;28;44421;-80
2024/02/24 13:38:24;;;;;;;0.33;0.33;;;;;;;18.72;32.10;97799.03;5079118;28;41195;-82
2024/02/24 13:40:52;;;;;;;2.43;0.60;;;;;;;18.86;31.05;97801.00;5079351;28;39122;-82
2024/02/24 13:43:19;;;;;;;0.47;0.40;;;;;;;18.94;31.17;97835.00;5096303;28;41804;-83
2024/02/24 13:45:48;;;;;;;0.40;0.30;;;;;;;19.19;31.43;97819.63;5075898;28;43941;-83
2024/02/24 13:48:16;;;;;;;0.73;0.50;;;;;;;19.22;31.22;97813.91;5075493;28;43178;-84
2024/02/24 13:50:43;;;;;;;0.40;0.30;;;;;;;19.56;31.51;97805.50;5093561;28;39532;-83
2024/02/24 13:53:11;;;;;;;0.97;0.40;;;;;;;20.96;29.96;97818.38;5079098;28;40906;-83
2024/02/24 13:55:38;;;;;;;0.70;0.50;;;;;;;22.46;28.68;97810.25;5094930;28;42844;-84
2024/02/24 13:58:06;;;;;;;0.50;0.33;;;;;;;23.18;27.34;97828.78;5094197;28;41483;-82
2024/02/24 14:00:33;;;;;;;0.40;0.40;;;;;;;24.03;26.35;97842.78;5070812;28;39113;-82
2024/02/24 14:03:03;;;;;;;0.67;0.40;;;;;;;24.59;25.46;97860.34;5079654;28;41016;-82
2024/02/24 14:05:33;;;;;;;0.70;0.30;;;;;;;24.26;24.98;97868.44;5096584;28;43061;-83
2024/02/24 14:08:02;;;;;;;0.30;0.30;;;;;;;24.27;25.28;97861.16;5097062;28;42675;-83
2024/02/24 14:10:30;;;;;;;2.53;0.33;;;;;;;24.40;25.23;97879.28;5096703;28;40043;-82
2024/02/24 14:12:58;;;;;;;0.60;0.40;;;;;;;23.64;25.10;97883.03;5078494;28;40441;-83
2024/02/24 14:15:25;;;;;;;0.97;0.60;;;;;;;22.66;26.11;97868.91;5095613;28;43911;-83
2024/02/24 14:17:54;;;;;;;1.20;0.63;;;;;;;23.43;26.40;97852.56;5095822;28;42156;-82
2024/02/24 14:20:24;;;;;;;0.70;0.70;;;;;;;24.08;25.51;97867.38;5078906;28;39783;-82
2024/02/24 14:22:52;;;;;;;0.47;0.47;;;;;;;24.67;25.05;97881.78;5062474;28;40919;-83
2024/02/24 14:25:19;;;;;;;0.67;0.50;;;;;;;25.04;24.56;97882.19;5078522;28;41621;-82
2024/02/24 14:27:47;;;;;;;0.97;0.80;;;;;;;24.12;25.23;97834.28;5096175;28;41516;-83
2024/02/24 14:30:15;;;;;;;0.90;0.80;;;;;;;24.62;24.95;97865.34;5095732;28;38902;-82
2024/02/24 14:32:43;;;;;;;0.57;0.50;;;;;;;24.55;24.29;97894.28;5078913;28;41814;-83
2024/02/24 14:35:12;;;;;;;1.27;0.90;;;;;;;23.35;25.21;97904.94;5078220;28;42899;-83
2024/02/24 14:37:42;;;;;;;0.80;0.80;;;;;;;22.02;26.32;97886.00;5078648;28;41076;-82
2024/02/24 14:40:10;;;;;;;0.67;0.67;;;;;;;21.00;27.40;97873.50;5095060;28;39713;-82
2024/02/24 14:42:37;;;;;;;1.17;0.90;;;;;;;20.45;28.87;97874.72;5095506;28;41769;-82
2024/02/24 14:45:06;;;;;;;0.73;0.70;;;;;;;19.91;29.10;97874.78;5094895;28;43720;-82
2024/02/24 14:47:34;;;;;;;1.00;0.50;;;;;;;19.06;29.90;97830.91;5061431;28;43184;-82
2024/02/24 14:50:02;;;;;;;0.37;0.30;;;;;;;18.63;30.34;97854.53;5078322;28;39904;-82
2024/02/24 14:52:31;;;;;;;0.40;0.40;;;;;;;18.33;31.32;97867.78;5078282;28;42108;-81
2024/02/24 14:55:01;;;;;;;0.23;0.23;;;;;;;17.76;31.80;97859.72;5077626;28;43428;-84
2024/02/24 14:57:28;;;;;;;0.30;0.30;;;;;;;17.25;32.05;97842.84;5078097;28;42449;-82
2024/02/24 14:59:56;;;;;;;0.63;0.30;;;;;;;16.82;32.77;97831.28;5078680;28;40523;-82
2024/02/24 15:02:23;;;;;;;0.40;0.40;;;;;;;16.70;32.93;97859.31;5079168;28;43193;-81
2024/02/24 15:04:51;;;;;;;0.77;0.43;;;;;;;16.27;33.85;97837.97;5096188;28;42511;-81
2024/02/24 15:07:18;;;;;;;0.50;0.40;;;;;;;16.12;34.11;97856.38;5062408;28;41533;-82
2024/02/24 15:09:47;;;;;;;0.50;0.50;;;;;;;15.54;34.48;97815.97;5096012;28;41603;-81
2024/02/24 15:12:16;;;;;;;0.90;0.40;;;;;;;15.58;36.14;97847.53;5095391;28;41083;-81
2024/02/24 15:14:43;;;;;;;1.17;0.63;;;;;;;15.33;35.49;97853.63;5094358;28;43830;-81
2024/02/24 15:17:11;;;;;;;0.43;0.43;;;;;;;15.10;35.76;97854.00;5094990;28;42896;-81
2024/02/24 15:19:40;;;;;;;1.13;0.60;;;;;;;14.82;36.30;97855.00;5095089;28;40899;-82
2024/02/24 15:22:07;;;;;;;0.80;0.60;;;;;;;14.62;36.86;97843.56;5094922;28;42672;-82
2024/02/24 15:24:35;;;;;;;0.40;0.40;;;;;;;14.41;37.32;97839.44;5061048;28;42450;-82
2024/02/24 15:27:03;;;;;;;1.17;0.43;;;;;;;14.18;37.75;97828.25;5077591;28;43730;-81
2024/02/24 15:29:32;;;;;;;0.57;0.53;;;;;;;13.99;37.84;97832.59;5077912;28;39152;-82
2024/02/24 15:32:00;;;;;;;1.37;0.50;;;;;;;14.00;38.04;97842.28;5077774;28;43410;-82
2024/02/24 15:34:27;;;;;;;1.30;0.90;;;;;;;13.75;38.32;97826.88;5094398;28;44252;-82
2024/02/24 15:36:55;;;;;;;1.43;0.80;;;;;;;13.65;38.60;97840.19;5094050;28;41276;-83
2024/02/24 15:39:22;;;;;;;2.10;0.80;;;;;;;13.46;39.31;97831.38;5094334;28;39115;-81
2024/02/24 15:41:50;;;;;;;1.10;0.83;;;;;;;13.33;39.81;97836.13;5093938;28;42209;-83
2024/02/24 15:44:18;;;;;;;2.13;0.80;;;;;;;13.12;39.94;97821.06;5094161;28;42850;-83
2024/02/24 15:46:47;;;;;;;0.83;0.60;;;;;;;12.91;40.18;97809.69;5077127;28;42286;-82
2024/02/24 15:49:14;;;;;;;0.70;0.70;;;;;;;12.81;40.77;97809.66;5095028;28;39045;-82
2024/02/24 15:51:42;;;;;;;0.60;0.60;;;;;;;12.75;40.93;97809.34;5076801;28;41866;-82
2024/02/24 15:54:09;;;;;;;1.17;0.60;;;;;;;12.77;40.97;97821.53;5111959;28;43426;-81
2024/02/24 15:56:37;;;;;;;0.70;0.40;;;;;;;12.70;41.42;97823.06;5093406;28;41065;-82
2024/02/24 15:59:05;;;;;;;0.53;0.50;;;;;;;12.59;41.41;97821.34;5112149;28;41182;-82
2024/02/24 16:01:33;;;;;;;0.97;0.60;;;;;;;12.51;41.63;97821.16;5112838;28;42276;-82
2024/02/24 16:04:02;;;;;;;0.53;0.53;;;;;;;12.22;42.09;97785.69;5077863;28;43367;-82
2024/02/24 16:06:30;;;;;;;0.47;0.47;;;;;;;12.28;42.10;97801.06;5077596;28;43091;-82
2024/02/24 16:08:58;;;;;;;0.70;0.70;;;;;;;12.40;41.72;97831.03;5077794;28;39084;-81
2024/02/24 16:11:25;;;;;;;0.73;0.70;;;;;;;12.33;42.86;97814.78;5077611;28;40945;-81
2024/02/24 16:13:53;;;;;;;1.20;0.63;;;;;;;12.21;42.45;97818.50;5094682;28;43156;-81
2024/02/24 16:16:20;;;;;;;2.47;0.60;;;;;;;12.05;43.66;97811.00;5094712;28;41675;-83
2024/02/24 16:18:48;;;;;;;1.57;0.80;;;;;;;11.96;42.83;97833.00;5077904;28;40020;-82
2024/02/24 16:21:18;;;;;;;1.03;0.53;;;;;;;11.84;43.14;97832.22;5112707;28;41821;-82
2024/02/24 16:23:45;;;;;;;0.60;0.60;;;;;;;11.62;43.22;97813.72;5094838;28;43532;-82
2024/02/24 16:26:14;;;;;;;1.50;0.80;;;;;;;11.56;43.39;97829.31;5077406;28;41856;-82
2024/02/24 16:28:42;;;;;;;0.70;0.70;;;;;;;11.52;43.56;97834.03;5077085;28;40281;-81
2024/02/24 16:31:09;;;;;;;1.43;0.80;;;;;;;11.27;44.14;97803.38;5092692;28;41765;-82
2024/02/24 16:33:38;;;;;;;1.93;0.80;;;;;;;11.16;44.60;97814.03;5076823;28;41455;-83
2024/02/24 16:36:07;;;;;;;0.60;0.50;;;;;;;11.07;44.65;97828.88;5076346;28;42763;-82
2024/02/24 16:38:36;;;;;;;0.57;0.50;;;;;;;11.02;44.69;97840.78;5093631;28;40912;-84
2024/02/24 16:41:04;;;;;;;0.60;0.60;;;;;;;10.82;45.20;97826.50;5093308;28;41918;-85
2024/02/24 16:43:31;;;;;;;0.60;0.60;;;;;;;10.82;45.47;97842.41;5093469;28;42960;-81
2024/02/24 16:45:59;;;;;;;0.73;0.70;;;;;;;10.58;45.46;97831.09;5093352;28;43875;-82
2024/02/24 16:48:26;;;;;;;1.00;0.90;;;;;;;10.53;45.40;97855.28;5093638;28;39453;-83
2024/02/24 16:50:54;;;;;;;1.20;0.83;;;;;;;10.40;46.01;97847.44;5093206;28;40777;-82
2024/02/24 16:53:21;;;;;;;1.00;0.60;;;;;;;10.28;46.13;97860.78;5093351;28;43022;-84
2024/02/24 16:55:50;;;;;;;1.10;0.80;;;;;;;10.18;46.22;97858.00;5075920;28;41934;-82
2024/02/24 16:58:18;;;;;;;1.00;0.70;;;;;;;10.10;46.68;97865.66;5076657;28;39211;-82
2024/02/24 17:00:45;;;;;;;1.17;0.70;;;;;;;10.02;47.04;97870.69;5094390;28;41780;-83
2024/02/24 17:03:13;;;;;;;1.20;0.90;;;;;;;9.84;47.21;97849.13;5078049;28;41738;-84
2024/02/24 17:05:40;;;;;;;1.50;1.10;;;;;;;9.87;47.61;97867.41;5081654;28;41505;-82
2024/02/24 17:08:08;;;;;;;1.33;1.00;;;;;;;9.68;48.23;97851.25;5082118;28;39979;-81
2024/02/24 17:10:39;;;;;;;1.53;0.87;;;;;;;9.62;47.95;97849.91;5098249;28;40538;-85
2024/02/24 17:13:09;;;;;;;2.10;1.30;;;;;;;9.77;47.67;97876.16;5093956;28;41747;-83
2024/02/24 17:15:38;;;;;;;1.57;0.97;;;;;;;9.79;47.92;97871.56;5116325;28;42004;-85
2024/02/24 17:18:06;;;;;;;2.30;1.23;;;;;;;9.70;48.14;97859.91;5117045;28;40139;-84
2024/02/24 17:20:34;;;;;;;1.43;1.10;;;;;;;9.68;48.08;97857.38;5099729;28;42191;-82
2024/02/24 17:23:09;;;;;;;2.73;1.30;;;;;;;9.85;48.56;97876.41;5116568;28;43044;-83
2024/02/24 17:25:37;;;;;;;1.37;1.27;;;;;;;9.77;49.04;97861.13;5081141;28;41110;-83
2024/02/24 17:28:06;;;;;;;2.23;1.37;;;;;;;9.88;48.83;97882.34;5081124;28;40044;-83
2024/02/24 17:30:35;;;;;;;1.53;1.03;;;;;;;9.94;48.66;97881.00;5094111;28;40785;-85
2024/02/24 17:33:04;;;;;;;1.37;0.83;;;;;;;9.82;48.59;97864.28;5079529;28;41933;-80
2024/02/24 17:35:31;;;;;;;2.30;1.30;;;;;;;9.84;49.06;97866.81;5114628;28;42814;-84
2024/02/24 17:38:02;;;;;;;1.63;1.10;;;;;;;9.94;49.59;97883.66;5090732;28;38975;-82
2024/02/24 17:40:29;;;;;;;1.43;1.20;;;;;;;9.88;49.31;97884.13;5078795;28;42036;-81
2024/02/24 17:42:57;;;;;;;1.60;1.30;;;;;;;9.91;49.71;97884.72;5095466;28;41851;-83
2024/02/24 17:45:24;;;;;;;2.77;1.70;;;;;;;9.83;49.63;97876.53;5079014;28;42511;-83
2024/02/24 17:47:53;;;;;;;2.30;1.87;;;;;;;9.91;49.61;97892.66;5096766;28;39944;-85
2024/02/24 17:50:21;;;;;;;1.90;1.67;;;;;;;9.92;49.13;97902.28;5097042;28;43570;-85
2024/02/24 17:52:52;;;;;;;1.70;1.60;;;;;;;9.84;48.70;97888.78;5080521;28;41292;-85
2024/02/24 17:55:20;;;;;;;2.07;1.63;;;;;;;9.94;48.91;97905.66;5060742;28;41348;-89
2024/02/24 17:57:47;;;;;;;1.53;1.40;;;;;;;9.73;49.19;97870.25;5074374;28;39922;-83
2024/02/24 18:00:16;;;;;;;1.97;1.50;;;;;;;9.85;49.74;97894.94;5082053;28;40880;-82
2024/02/24 18:02:43;;;;;;;2.43;1.43;;;;;;;9.66;49.67;97872.50;5081656;28;43024;-85
2024/02/24 18:05:12;;;;;;;2.87;1.30;;;;;;;9.73;50.24;97892.25;5081603;28;41486;-84
2024/02/24 18:07:40;;;;;;;1.53;1.20;;;;;;;9.49;50.96;97865.00;5097371;28;40919;-85
2024/02/24 18:10:08;;;;;;;2.20;1.60;;;;;;;9.54;51.20;97876.06;5079983;28;40982;-84
2024/02/24 18:12:36;;;;;;;3.33;1.97;;;;;;;9.63;51.20;97896.53;5096539;28;43210;-82
2024/02/24 18:15:04;;;;;;;2.73;1.90;;;;;;;9.64;50.69;97903.47;5077763;28;40868;-83
2024/02/24 18:17:32;;;;;;;2.40;1.90;;;;;;;9.63;50.51;97907.09;5095892;28;38942;-84
2024/02/24 18:19:59;;;;;;;2.10;1.90;;;;;;;9.63;50.59;97907.09;5096099;28;40782;-83
2024/02/24 18:22:28;;;;;;;3.17;2.20;;;;;;;9.50;50.52;97893.09;5078400;28;41901;-83
2024/02/24 18:24:56;;;;;;;4.47;2.53;;;;;;;9.53;51.12;97898.16;5078901;28;41163;-84
2024/02/24 18:27:25;;;;;;;5.70;2.57;;;;;;;9.43;51.97;97891.00;5088759;28;39842;-82
2024/02/24 18:29:53;;;;;;;3.80;3.07;;;;;;;9.30;52.70;97878.69;5075618;28;41826;-83
2024/02/24 18:32:21;;;;;;;6.37;3.70;;;;;;;9.40;51.97;97905.28;5063771;28;41880;-83
2024/02/24 18:34:50;;;;;;;5.50;3.20;;;;;;;9.37;51.75;97908.16;5095817;28;42165;-83
2024/02/24 18:37:18;;;;;;;4.43;2.97;;;;;;;9.30;51.68;97909.56;5078596;28;40719;-84
2024/02/24 18:39:48;;;;;;;5.10;3.10;;;;;;;9.09;52.71;97884.69;5095796;28;40485;-85
2024/02/24 18:42:20;;;;;;;4.13;2.90;;;;;;;8.93;53.46;97877.88;5095353;28;42631;-83
2024/02/24 18:44:47;;;;;;;4.60;3.43;;;;;;;8.79;54.72;97878.00;5078571;28;42199;-83
2024/02/24 18:47:15;;;;;;;5.70;3.53;;;;;;;8.68;53.96;97891.13;5077964;28;40235;-82
2024/02/24 18:49:42;;;;;;;3.60;3.30;;;;;;;8.68;54.04;97903.47;5095678;28;41080;-81
2024/02/24 18:52:11;;;;;;;4.63;3.23;;;;;;;8.60;53.77;97910.13;5095574;28;43079;-83
2024/02/24 18:54:39;;;;;;;3.70;2.50;;;;;;;8.57;53.49;97914.78;5094729;28;41796;-83
2024/02/24 18:57:08;;;;;;;4.10;3.00;;;;;;;8.52;53.00;97912.47;5095081;28;40422;-84
2024/02/24 18:59:35;;;;;;;4.17;2.77;;;;;;;8.25;53.45;97872.97;5095652;28;40740;-82
2024/02/24 19:02:03;;;;;;;4.70;3.00;;;;;;;8.38;53.15;97902.03;5096213;28;43096;-82
2024/02/24 19:04:31;;;;;;;4.40;3.00;;;;;;;8.40;53.37;97915.13;5078958;28;41407;-84
2024/02/24 19:06:59;;;;;;;4.70;3.40;;;;;;;8.29;53.28;97900.81;5095872;28;38867;-84
2024/02/24 19:09:26;;;;;;;5.30;3.50;;;;;;;8.38;53.28;97925.75;5078460;28;40785;-84
2024/02/24 19:11:54;;;;;;;6.73;3.73;;;;;;;8.03;53.29;97862.22;5079016;28;41885;-85
2024/02/24 19:14:23;;;;;;;4.30;3.40;;;;;;;8.23;53.11;97889.84;5078362;28;41412;-84
2024/02/24 19:16:51;;;;;;;6.97;4.60;;;;;;;8.43;53.04;97918.34;5078856;28;39433;-84
2024/02/24 19:19:19;;;;;;;8.63;5.50;;;;;;;8.41;53.73;97898.31;5078013;28;40963;-84
2024/02/24 19:21:46;;;;;;;11.70;7.27;;;;;;;8.55;54.83;97914.03;5094467;28;42904;-81
2024/02/24 19:24:14;;;;;;;13.20;7.63;;;;;;;8.46;55.28;97901.47;5077607;28;42708;-80
2024/02/24 19:26:41;;;;;;;7.93;5.63;;;;;;;8.53;55.49;97919.41;5093644;28;41694;-80
2024/02/24 19:29:10;;;;;;;5.60;4.43;;;;;;;8.61;55.89;97921.53;5077216;28;41866;-80
2024/02/24 19:31:39;;;;;;;8.07;4.80;;;;;;;8.59;55.68;97913.72;5077601;28;41565;-81
2024/02/24 19:34:09;;;;;;;5.33;4.13;;;;;;;8.55;56.19;97903.47;5094044;28;42094;-82
2024/02/24 19:36:36;;;;;;;6.63;4.07;;;;;;;8.52;56.58;97898.44;5094949;28;39053;-83
2024/02/24 19:39:04;;;;;;;4.70;3.33;;;;;;;8.56;56.48;97907.81;5077204;28;41242;-81
2024/02/24 19:41:33;;;;;;;4.53;3.00;;;;;;;8.65;56.07;97921.19;5077527;28;42188;-83
2024/02/24 19:44:03;;;;;;;4.37;2.70;;;;;;;8.56;56.59;97905.16;5075943;28;42358;-83
2024/02/24 19:46:31;;;;;;;5.53;2.93;;;;;;;8.49;57.02;97898.63;5076788;28;40036;-83
2024/02/24 19:49:00;;;;;;;4.90;2.97;;;;;;;8.49;56.38;97904.75;5078077;28;40981;-85
2024/02/24 19:51:28;;;;;;;4.43;3.50;;;;;;;8.39;56.74;97905.50;5093439;28;42622;-84
2024/02/24 19:53:56;;;;;;;4.47;2.93;;;;;;;8.29;56.73;97906.06;5085065;28;41260;-84
2024/02/24 19:56:25;;;;;;;3.70;2.90;;;;;;;8.15;57.44;97897.44;5114837;28;39888;-82
2024/02/24 19:58:53;;;;;;;4.87;2.90;;;;;;;7.95;58.02;97885.59;5079454;28;40655;-82
2024/02/24 20:01:21;;;;;;;3.10;2.40;;;;;;;7.82;58.04;97890.00;5095446;28;41753;-85
2024/02/24 20:03:50;;;;;;;3.70;2.63;;;;;;;7.63;58.51;97879.00;5096080;28;41379;-83
2024/02/24 20:06:19;;;;;;;2.83;2.10;;;;;;;7.61;59.13;97889.63;5074828;28;39356;-84
2024/02/24 20:08:46;;;;;;;3.40;1.87;;;;;;;7.43;59.78;97883.78;5080475;28;42015;-84
2024/02/24 20:11:14;;;;;;;2.10;1.87;;;;;;;7.22;61.22;97858.84;5092605;28;42040;-85
2024/02/24 20:13:42;;;;;;;2.53;1.60;;;;;;;7.26;61.19;97873.50;5112963;28;43199;-83
2024/02/24 20:16:10;;;;;;;1.50;1.30;;;;;;;7.15;61.71;97873.38;5093110;28;40261;-85
2024/02/24 20:18:38;;;;;;;2.77;1.60;;;;;;;7.02;62.55;97868.03;5093979;28;43159;-82
2024/02/24 20:21:06;;;;;;;1.30;1.20;;;;;;;7.00;64.02;97869.06;5114999;27;41721;-83
2024/02/24 20:23:35;;;;;;;1.30;1.20;;;;;;;6.87;65.06;97852.38;5099678;28;41323;-84
2024/02/24 20:26:03;;;;;;;1.27;0.97;;;;;;;6.89;65.48;97867.13;5073623;28;39069;-85
2024/02/24 20:28:31;;;;;;;1.27;0.90;;;;;;;6.85;65.73;97865.63;5079835;28;41077;-83
2024/02/24 20:30:59;;;;;;;0.77;0.77;;;;;;;6.85;65.41;97891.94;5112687;28;42824;-84
2024/02/24 20:33:27;;;;;;;1.07;0.70;;;;;;;6.76;65.21;97890.72;5093212;28;41394;-83
2024/02/24 20:35:55;;;;;;;0.70;0.60;;;;;;;6.68;64.47;97894.75;5094213;28;38620;-84
2024/02/24 20:38:23;;;;;;;0.90;0.67;;;;;;;6.54;66.54;97881.66;5092708;28;41007;-84
2024/02/24 20:40:52;;;;;;;0.70;0.70;;;;;;;6.49;66.31;97890.66;5093980;28;41914;-83